sensor_id;sensor_type;location;lat;lon;timestamp;pressure;altitude;pressure_sealevel;temperature
74321;BMP280;62738;45.772;4.804;2024-03-08T00:02:18;99078.56;;;10.14
74321;BMP280;62738;45.772;4.804;2024-03-08T00:04:45;99068.66;;;10.21
74321;BMP280;62738;45.772;4.804;2024-03-08T00:07:12;99067.66;;;10.26
74321;BMP280;62738;45.772;4.804;2024-03-08T00:09:40;99069.31;;;10.39
74321;BMP280;62738;45.772;4.804;2024-03-08T00:12:06;99065.41;;;10.42
74321;BMP280;62738;45.772;4.804;2024-03-08T00:14:33;99058.53;;;10.43
74321;BMP280;62738;45.772;4.804;2024-03-08T00:17:00;99060.72;;;10.44
74321;BMP280;62738;45.772;4.804;2024-03-08T00:19:27;99060.63;;;10.52
74321;BMP280;62738;45.772;4.804;2024-03-08T00:21:53;99054.22;;;10.59
74321;BMP280;62738;45.772;4.804;2024-03-08T00:24:21;99057.59;;;10.57
74321;BMP280;62738;45.772;4.804;2024-03-08T00:26:51;99056.75;;;10.74
74321;BMP280;62738;45.772;4.804;2024-03-08T00:29:20;99056.28;;;10.68
74321;BMP280;62738;45.772;4.804;2024-03-08T00:31:48;99054.53;;;10.63
74321;BMP280;62738;45.772;4.804;2024-03-08T00:34:15;99050.13;;;10.60
74321;BMP280;62738;45.772;4.804;2024-03-08T00:36:42;99048.09;;;10.60
74321;BMP280;62738;45.772;4.804;2024-03-08T00:39:09;99050.13;;;10.60
74321;BMP280;62738;45.772;4.804;2024-03-08T00:41:35;99049.72;;;10.63
74321;BMP280;62738;45.772;4.804;2024-03-08T00:44:02;99037.16;;;10.62
74321;BMP280;62738;45.772;4.804;2024-03-08T00:46:31;99037.75;;;10.61
74321;BMP280;62738;45.772;4.804;2024-03-08T00:48:58;99033.66;;;10.62
74321;BMP280;62738;45.772;4.804;2024-03-08T00:51:25;99030.88;;;10.62
74321;BMP280;62738;45.772;4.804;2024-03-08T00:53:51;99024.19;;;10.65
74321;BMP280;62738;45.772;4.804;2024-03-08T00:56:18;99027.66;;;10.75
74321;BMP280;62738;45.772;4.804;2024-03-08T00:58:45;99026.22;;;10.74
74321;BMP280;62738;45.772;4.804;2024-03-08T01:01:13;99022.00;;;10.73
74321;BMP280;62738;45.772;4.804;2024-03-08T01:03:45;99021.41;;;10.75
74321;BMP280;62738;45.772;4.804;2024-03-08T01:06:11;99016.03;;;10.67
74321;BMP280;62738;45.772;4.804;2024-03-08T01:08:38;99014.81;;;10.70
74321;BMP280;62738;45.772;4.804;2024-03-08T01:11:08;99014.97;;;10.72
74321;BMP280;62738;45.772;4.804;2024-03-08T01:13:35;99021.69;;;10.69
74321;BMP280;62738;45.772;4.804;2024-03-08T01:16:02;99011.91;;;10.78
74321;BMP280;62738;45.772;4.804;2024-03-08T01:18:29;99004.31;;;10.78
74321;BMP280;62738;45.772;4.804;2024-03-08T01:20:56;98998.91;;;10.70
74321;BMP280;62738;45.772;4.804;2024-03-08T01:23:24;98999.06;;;10.63
74321;BMP280;62738;45.772;4.804;2024-03-08T01:25:50;98999.06;;;10.63
74321;BMP280;62738;45.772;4.804;2024-03-08T01:28:24;98996.44;;;10.65
74321;BMP280;62738;45.772;4.804;2024-03-08T01:30:51;98993.09;;;10.66
74321;BMP280;62738;45.772;4.804;2024-03-08T01:33:25;98999.38;;;10.67
74321;BMP280;62738;45.772;4.804;2024-03-08T01:35:53;98994.66;;;10.60
74321;BMP280;62738;45.772;4.804;2024-03-08T01:38:20;98991.47;;;10.63
74321;BMP280;62738;45.772;4.804;2024-03-08T01:40:48;98986.50;;;10.62
74321;BMP280;62738;45.772;4.804;2024-03-08T01:43:25;98981.69;;;10.62
74321;BMP280;62738;45.772;4.804;2024-03-08T01:45:58;98981.66;;;10.53
74321;BMP280;62738;45.772;4.804;2024-03-08T01:48:28;98986.34;;;10.50
74321;BMP280;62738;45.772;4.804;2024-03-08T01:50:57;98971.59;;;10.48
74321;BMP280;62738;45.772;4.804;2024-03-08T01:53:24;98955.72;;;10.58
74321;BMP280;62738;45.772;4.804;2024-03-08T01:55:57;98966.06;;;10.57
74321;BMP280;62738;45.772;4.804;2024-03-08T01:58:26;98966.50;;;10.54
74321;BMP280;62738;45.772;4.804;2024-03-08T02:03:29;98955.25;;;10.61
74321;BMP280;62738;45.772;4.804;2024-03-08T02:06:16;98951.59;;;10.59
